Time;durP1;ratioP1;P1;durP2;ratioP2;P2;SDS_P1;SDS_P2;PMS_P1;PMS_P2;Temp;Humidity;BMP_temperature;BMP_pressure;BME280_temperature;BME280_humidity;BME280_pressure;Samples;Min_cycle;Max_cycle;Signal;HPM_P1;HPM_P2
2023/01/16 00:02:03;;;;;;;4.65;1.02;;;5.50;99.90;;;;;;4837717;29;20034;-74
2023/01/16 00:04:28;;;;;;;3.85;1.30;;;5.40;99.90;;;;;;4839070;29;20086;-74
2023/01/16 00:06:55;;;;;;;2.70;1.40;;;5.30;99.90;;;;;;4822447;29;20045;-74
2023/01/16 00:09:20;;;;;;;8.02;1.60;;;5.20;99.90;;;;;;4838517;29;20054;-74
2023/01/16 00:11:46;;;;;;;6.32;2.35;;;5.30;99.90;;;;;;4822489;29;20037;-74
2023/01/16 00:14:12;;;;;;;9.02;1.80;;;5.20;99.90;;;;;;4838510;29;20053;-74
2023/01/16 00:16:38;;;;;;;5.45;1.35;;;5.10;99.90;;;;;;4823686;29;20030;-74
2023/01/16 00:19:05;;;;;;;3.13;1.73;;;5.00;99.90;;;;;;4858483;29;20037;-74
2023/01/16 00:21:30;;;;;;;2.17;1.02;;;4.90;99.90;;;;;;4875417;29;20058;-74
2023/01/16 00:23:57;;;;;;;4.68;2.03;;;4.90;99.90;;;;;;4846133;29;20034;-74
2023/01/16 00:26:25;;;;;;;10.70;2.83;;;4.80;99.90;;;;;;4840325;29;20442;-74
2023/01/16 00:28:51;;;;;;;1.52;1.42;;;4.80;99.90;;;;;;4856749;29;20026;-74
2023/01/16 00:31:17;;;;;;;3.70;2.25;;;4.70;99.90;;;;;;4856870;29;20373;-74
2023/01/16 00:33:43;;;;;;;2.83;1.40;;;4.60;99.90;;;;;;4840273;29;20037;-74
2023/01/16 00:36:10;;;;;;;4.82;1.70;;;4.60;99.90;;;;;;4856306;29;20073;-74
2023/01/16 00:38:36;;;;;;;4.65;1.77;;;4.50;99.90;;;;;;4845088;29;20570;-74
2023/01/16 00:41:03;;;;;;;4.30;1.70;;;4.50;99.90;;;;;;4838238;29;20481;-75
2023/01/16 00:43:29;;;;;;;6.40;1.15;;;4.50;99.90;;;;;;4821915;29;20051;-74
2023/01/16 00:45:56;;;;;;;2.05;1.42;;;4.40;99.90;;;;;;4838276;29;20116;-74
2023/01/16 00:48:22;;;;;;;6.13;2.15;;;4.30;99.90;;;;;;4838010;29;20035;-74
2023/01/16 00:50:49;;;;;;;3.17;1.35;;;4.30;99.90;;;;;;4831285;29;20042;-74
2023/01/16 00:53:15;;;;;;;4.07;1.75;;;4.30;99.90;;;;;;4856311;29;20130;-74
2023/01/16 00:55:41;;;;;;;3.40;1.77;;;4.30;99.90;;;;;;4839950;29;20030;-74
2023/01/16 00:58:10;;;;;;;5.18;1.70;;;4.20;99.90;;;;;;4856137;29;20102;-74
2023/01/16 01:00:38;;;;;;;2.83;1.40;;;4.20;99.90;;;;;;4824787;29;20037;-74
2023/01/16 01:03:05;;;;;;;2.53;1.52;;;4.10;99.90;;;;;;4856243;29;20120;-74
2023/01/16 01:05:34;;;;;;;3.33;1.83;;;4.10;99.90;;;;;;4855666;29;20061;-74
2023/01/16 01:08:00;;;;;;;2.20;1.80;;;4.00;99.90;;;;;;4856141;29;20038;-74
2023/01/16 01:10:25;;;;;;;2.88;1.38;;;4.10;99.90;;;;;;4841347;29;20097;-74
2023/01/16 01:12:54;;;;;;;8.63;2.20;;;4.10;99.90;;;;;;4837519;29;20046;-74
2023/01/16 01:15:21;;;;;;;2.05;1.85;;;4.10;99.90;;;;;;4821372;29;20457;-74
2023/01/16 01:17:46;;;;;;;9.68;2.35;;;4.10;99.90;;;;;;4848764;29;20033;-74
2023/01/16 01:20:12;;;;;;;16.65;2.58;;;4.10;99.90;;;;;;4874302;29;20093;-74
2023/01/16 01:22:38;;;;;;;8.20;2.78;;;4.10;99.90;;;;;;4874332;29;20055;-74
2023/01/16 01:25:05;;;;;;;1.77;1.27;;;4.00;99.90;;;;;;4830111;29;20080;-74
2023/01/16 01:27:30;;;;;;;5.10;1.98;;;3.90;99.90;;;;;;4837518;29;20030;-74
2023/01/16 01:29:56;;;;;;;5.97;2.55;;;3.90;99.90;;;;;;4821220;29;20509;-75
2023/01/16 01:32:22;;;;;;;5.05;1.08;;;3.90;99.90;;;;;;4821009;29;20026;-74
2023/01/16 01:34:48;;;;;;;3.60;2.25;;;3.90;99.90;;;;;;4820763;29;20062;-74
2023/01/16 01:37:14;;;;;;;3.10;1.73;;;3.90;99.90;;;;;;4837589;29;20059;-74
2023/01/16 01:39:39;;;;;;;1.45;1.30;;;3.90;99.90;;;;;;4837231;29;20393;-74
2023/01/16 01:45:00;;;;;;;4.10;1.88;;;3.90;99.90;;;;;;4837248;29;20042;-74
2023/01/16 01:47:34;;;;;;;3.03;1.15;;;3.80;99.90;;;;;;4837299;29;20026;-74
2023/01/16 01:50:04;;;;;;;2.10;1.48;;;3.80;99.90;;;;;;4837479;29;20034;-74
2023/01/16 01:52:32;;;;;;;8.95;1.85;;;3.80;99.90;;;;;;4820743;29;20030;-74
2023/01/16 01:55:03;;;;;;;6.40;1.35;;;3.80;99.90;;;;;;4819027;29;20098;-74
2023/01/16 01:57:34;;;;;;;2.65;1.77;;;3.70;99.90;;;;;;4837158;29;20113;-74
2023/01/16 02:00:16;;;;;;;6.18;2.05;;;3.60;99.90;;;;;;4837220;29;20039;-75
2023/01/16 02:02:55;;;;;;;3.80;1.15;;;3.60;99.90;;;;;;4837203;29;20050;-74
2023/01/16 02:05:28;;;;;;;5.97;2.05;;;3.60;99.90;;;;;;4837107;29;20026;-74
2023/01/16 02:07:54;;;;;;;4.28;1.10;;;3.50;99.90;;;;;;4820701;29;20026;-74
2023/01/16 02:10:41;;;;;;;5.22;2.08;;;3.50;99.90;;;;;;4836809;29;20058;-75
2023/01/16 02:13:06;;;;;;;1.27;0.98;;;3.40;99.90;;;;;;4836740;29;20045;-74
2023/01/16 02:15:34;;;;;;;4.18;1.80;;;3.30;99.90;;;;;;4837027;29;20038;-74
2023/01/16 02:21:01;;;;;;;6.10;2.33;;;3.30;99.90;;;;;;4873485;29;20057;-74
2023/01/16 02:23:46;;;;;;;2.53;2.10;;;3.30;99.90;;;;;;4854541;29;20038;-74
2023/01/16 02:26:27;;;;;;;1.98;1.85;;;3.30;99.90;;;;;;4820202;29;20130;-74
2023/01/16 02:28:57;;;;;;;1.80;1.67;;;3.30;99.90;;;;;;4820141;29;20046;-74
2023/01/16 02:31:43;;;;;;;3.97;2.13;;;3.30;99.90;;;;;;4836871;29;20046;-74
2023/01/16 02:34:22;;;;;;;2.50;2.08;;;3.30;99.90;;;;;;4827845;29;20129;-74
2023/01/16 02:37:19;;;;;;;2.38;1.55;;;3.30;99.90;;;;;;4836720;29;20095;-74
2023/01/16 02:39:54;;;;;;;1.40;1.38;;;3.40;99.90;;;;;;4836626;29;20038;-74
2023/01/16 02:42:42;;;;;;;3.03;1.77;;;3.50;99.90;;;;;;4836603;29;20060;-74
2023/01/16 02:45:18;;;;;;;2.80;1.67;;;3.60;99.90;;;;;;4805120;29;20053;-74
2023/01/16 02:48:08;;;;;;;7.22;2.95;;;3.50;99.90;;;;;;4820300;29;20035;-74
2023/01/16 02:51:08;;;;;;;1.55;1.42;;;3.50;99.90;;;;;;4836692;29;20027;-74
2023/01/16 02:53:59;;;;;;;10.60;3.30;;;3.50;99.90;;;;;;4826722;29;20042;-74
2023/01/16 02:56:35;;;;;;;1.30;1.10;;;3.40;99.90;;;;;;4819986;29;20090;-74
2023/01/16 02:59:01;;;;;;;5.50;1.45;;;3.40;99.90;;;;;;4836427;29;20105;-74
2023/01/16 03:01:27;;;;;;;3.47;3.15;;;3.30;99.90;;;;;;4836404;29;20038;-74
2023/01/16 03:03:52;;;;;;;1.45;1.42;;;3.40;99.90;;;;;;4819940;29;20034;-74
2023/01/16 03:06:45;;;;;;;6.65;2.95;;;3.30;99.90;;;;;;4819949;29;20069;-74
2023/01/16 03:09:48;;;;;;;8.02;1.73;;;3.40;99.90;;;;;;4819771;29;20414;-74
2023/01/16 03:12:40;;;;;;;7.07;1.92;;;3.40;99.90;;;;;;4827276;29;20034;-74
2023/01/16 03:15:37;;;;;;;6.35;2.67;;;3.40;99.90;;;;;;4854379;29;20034;-75
2023/01/16 03:18:37;;;;;;;4.32;2.90;;;3.40;99.90;;;;;;4838268;29;20033;-74
2023/01/16 03:21:07;;;;;;;;;;;3.50;99.90;;;;;;4873161;29;20117;-74
2023/01/16 03:23:55;;;;;;;3.55;2.38;;;3.60;99.90;;;;;;4840792;29;19920;-74
2023/01/16 03:26:38;;;;;;;3.42;1.65;;;3.60;99.90;;;;;;4850548;29;20110;-74
2023/01/16 03:29:25;;;;;;;5.82;2.20;;;3.70;99.90;;;;;;4819993;29;20121;-74
2023/01/16 03:32:15;;;;;;;4.80;2.03;;;3.70;99.90;;;;;;4819843;29;20046;-74
2023/01/16 03:34:49;;;;;;;2.83;1.45;;;3.80;99.90;;;;;;4819642;29;20060;-74
2023/01/16 03:37:25;;;;;;;3.80;2.20;;;3.80;99.90;;;;;;4823019;29;20042;-74
2023/01/16 03:39:58;;;;;;;3.20;1.75;;;3.80;99.90;;;;;;4823154;29;20042;-74
2023/01/16 03:42:36;;;;;;;6.80;1.50;;;3.90;99.90;;;;;;4843504;29;20033;-74
2023/01/16 03:45:18;;;;;;;12.85;2.38;;;3.80;99.90;;;;;;4847983;29;20121;-74
2023/01/16 03:47:52;;;;;;;2.58;1.63;;;3.80;99.90;;;;;;4822829;29;20035;-74
2023/01/16 03:50:22;;;;;;;4.25;2.05;;;3.90;99.90;;;;;;4838923;29;20043;-74
2023/01/16 03:52:54;;;;;;;3.25;1.70;;;3.90;99.90;;;;;;4839049;29;20077;-74
2023/01/16 03:55:29;;;;;;;3.00;2.00;;;3.90;99.90;;;;;;4838983;29;20035;-74
2023/01/16 03:58:11;;;;;;;2.40;1.42;;;3.90;99.90;;;;;;4838785;29;20042;-74
2023/01/16 04:00:49;;;;;;;1.48;1.27;;;3.90;99.90;;;;;;4838861;29;20035;-74
2023/01/16 04:03:29;;;;;;;2.38;1.85;;;3.90;99.90;;;;;;4838887;29;20045;-75
2023/01/16 04:06:12;;;;;;;4.25;2.15;;;3.90;99.90;;;;;;4841485;29;20472;-75
2023/01/16 04:08:41;;;;;;;1.63;1.45;;;3.90;99.90;;;;;;4857069;29;20038;-74
2023/01/16 04:11:09;;;;;;;3.30;1.27;;;3.90;99.90;;;;;;4840757;29;20125;-74
2023/01/16 04:13:38;;;;;;;6.03;1.48;;;3.90;99.90;;;;;;4856925;29;20519;-74
2023/01/16 04:16:09;;;;;;;3.20;1.95;;;4.00;99.90;;;;;;4857080;29;20041;-74
2023/01/16 04:18:36;;;;;;;4.80;2.63;;;4.00;99.90;;;;;;4832953;29;20109;-74
2023/01/16 04:21:07;;;;;;;2.22;2.03;;;4.10;99.90;;;;;;4863276;29;20026;-75
2023/01/16 04:23:33;;;;;;;2.17;1.63;;;4.20;99.90;;;;;;4822130;29;20039;-75
2023/01/16 04:25:59;;;;;;;4.80;1.85;;;4.20;99.90;;;;;;4838595;29;20038;-74
2023/01/16 04:28:25;;;;;;;3.22;1.65;;;4.20;99.90;;;;;;4838488;29;20042;-74
2023/01/16 04:30:51;;;;;;;2.55;1.20;;;4.30;99.90;;;;;;4838223;29;20041;-74
2023/01/16 04:33:17;;;;;;;2.30;1.40;;;4.30;99.90;;;;;;4822118;29;20094;-74
2023/01/16 04:35:43;;;;;;;6.45;2.08;;;4.40;99.90;;;;;;4838086;29;20067;-74
2023/01/16 04:38:09;;;;;;;4.85;0.98;;;4.40;99.90;;;;;;4838243;29;20034;-74
2023/01/16 04:40:35;;;;;;;3.17;2.03;;;4.40;99.90;;;;;;4838440;29;20393;-74
2023/01/16 04:43:01;;;;;;;13.68;1.90;;;4.40;99.90;;;;;;4821776;29;20034;-74
2023/01/16 04:45:27;;;;;;;3.33;1.42;;;4.40;99.90;;;;;;4838145;29;20095;-74
2023/01/16 04:47:53;;;;;;;3.78;2.05;;;4.40;99.90;;;;;;4837581;29;20027;-74
2023/01/16 04:50:19;;;;;;;1.17;1.08;;;4.50;99.90;;;;;;4807881;29;20042;-74
2023/01/16 04:52:45;;;;;;;3.38;1.95;;;4.50;99.90;;;;;;4838010;29;20045;-74
2023/01/16 04:55:11;;;;;;;4.32;1.75;;;4.50;99.90;;;;;;4827121;29;20362;-74
2023/01/16 04:57:37;;;;;;;2.35;1.38;;;4.60;99.90;;;;;;4839913;29;20063;-74
2023/01/16 05:00:06;;;;;;;2.00;1.35;;;4.70;99.90;;;;;;4856066;29;20022;-74
2023/01/16 05:02:32;;;;;;;3.00;1.38;;;4.70;99.90;;;;;;4856404;29;20105;-75
2023/01/16 05:04:58;;;;;;;5.78;1.52;;;4.70;99.90;;;;;;4856111;29;20044;-75
2023/01/16 05:07:26;;;;;;;3.67;1.90;;;4.70;99.90;;;;;;4856106;29;20034;-74
2023/01/16 05:09:52;;;;;;;7.28;2.28;;;4.70;99.90;;;;;;4846633;29;20027;-74
2023/01/16 05:12:19;;;;;;;5.28;1.70;;;4.70;99.90;;;;;;4821306;29;20046;-74
2023/01/16 05:14:45;;;;;;;6.90;1.63;;;4.70;99.90;;;;;;4837722;29;20071;-74
2023/01/16 05:17:11;;;;;;;1.42;1.33;;;4.70;99.90;;;;;;4837793;29;20027;-74
2023/01/16 05:19:36;;;;;;;6.07;1.13;;;4.70;99.90;;;;;;4851221;29;20026;-74
2023/01/16 05:22:03;;;;;;;1.17;1.08;;;4.70;99.90;;;;;;4874382;29;20440;-74
2023/01/16 05:24:29;;;;;;;8.05;1.80;;;4.70;99.90;;;;;;4857241;29;20030;-74
2023/01/16 05:26:54;;;;;;;1.17;0.82;;;4.70;99.90;;;;;;4837541;29;20118;-75
2023/01/16 05:29:20;;;;;;;3.67;2.15;;;4.60;99.90;;;;;;4821136;29;20046;-74
2023/01/16 05:31:46;;;;;;;9.68;2.63;;;4.70;99.90;;;;;;4837687;29;20030;-74
2023/01/16 05:34:12;;;;;;;5.75;1.33;;;4.60;99.90;;;;;;4836537;29;20526;-75
2023/01/16 05:36:38;;;;;;;10.15;2.10;;;4.60;99.90;;;;;;4849851;29;20052;-75
2023/01/16 05:39:04;;;;;;;1.02;1.02;;;4.60;99.90;;;;;;4861883;29;20059;-74
2023/01/16 05:41:30;;;;;;;9.75;1.58;;;4.60;99.90;;;;;;4855191;29;20030;-75
2023/01/16 05:43:56;;;;;;;5.95;1.73;;;4.60;99.90;;;;;;4837487;29;20125;-76
2023/01/16 05:46:22;;;;;;;11.30;1.42;;;4.70;99.90;;;;;;4793880;29;20033;-75
2023/01/16 05:48:47;;;;;;;4.32;1.45;;;4.70;99.90;;;;;;4855268;29;20457;-74
2023/01/16 05:51:13;;;;;;;1.42;1.30;;;4.70;99.90;;;;;;4838077;29;20042;-75
2023/01/16 05:53:40;;;;;;;7.10;2.90;;;4.80;99.90;;;;;;4838214;29;20038;-74
2023/01/16 05:56:08;;;;;;;1.50;1.38;;;4.80;99.90;;;;;;4823369;29;20392;-74
2023/01/16 05:58:34;;;;;;;1.88;1.05;;;4.80;99.90;;;;;;4837646;29;20026;-74
2023/01/16 06:01:00;;;;;;;2.15;1.13;;;4.80;99.90;;;;;;4854074;29;20503;-74
2023/01/16 06:03:26;;;;;;;2.92;1.50;;;4.90;99.90;;;;;;4819321;29;20042;-74
2023/01/16 06:05:52;;;;;;;1.33;1.20;;;4.90;99.90;;;;;;4818288;29;20081;-74
2023/01/16 06:08:18;;;;;;;4.13;1.90;;;4.90;99.90;;;;;;4837689;29;20081;-74
2023/01/16 06:10:45;;;;;;;10.10;1.77;;;4.90;99.90;;;;;;4853937;29;20033;-74
2023/01/16 06:13:11;;;;;;;1.48;1.15;;;4.90;99.90;;;;;;4826521;29;20033;-74
2023/01/16 06:15:37;;;;;;;4.15;1.50;;;4.90;99.90;;;;;;4822019;29;20022;-74
2023/01/16 06:18:03;;;;;;;0.68;0.65;;;4.90;99.90;;;;;;4853732;29;20030;-74
2023/01/16 06:20:29;;;;;;;2.05;0.95;;;4.80;99.90;;;;;;4822167;29;20061;-74
2023/01/16 06:22:55;;;;;;;1.17;1.17;;;4.80;99.90;;;;;;4822680;29;20018;-74
2023/01/16 06:25:21;;;;;;;2.72;1.20;;;4.80;99.90;;;;;;4854434;29;20022;-74
2023/01/16 06:27:48;;;;;;;5.80;1.77;;;4.80;99.90;;;;;;4795157;29;20408;-74
2023/01/16 06:30:15;;;;;;;2.83;1.23;;;4.70;99.90;;;;;;4854491;29;20033;-74
2023/01/16 06:32:41;;;;;;;4.45;1.30;;;4.60;99.90;;;;;;4811788;29;20034;-74
2023/01/16 06:35:07;;;;;;;0.88;0.88;;;4.50;99.90;;;;;;4835310;29;20133;-74
2023/01/16 06:37:33;;;;;;;0.98;0.77;;;4.40;99.90;;;;;;4822099;29;20097;-74
2023/01/16 06:40:01;;;;;;;1.40;1.30;;;4.40;99.90;;;;;;4836463;29;20071;-74
2023/01/16 06:42:28;;;;;;;2.85;1.40;;;4.30;99.90;;;;;;4844397;29;20034;-74
2023/01/16 06:44:54;;;;;;;4.45;2.28;;;4.30;99.90;;;;;;4820219;29;20026;-74
2023/01/16 06:47:20;;;;;;;3.30;2.05;;;4.20;99.90;;;;;;4803085;29;20049;-74
2023/01/16 06:49:46;;;;;;;3.08;1.80;;;4.20;99.90;;;;;;4816451;29;20042;-74
2023/01/16 06:52:12;;;;;;;2.58;1.13;;;4.20;99.90;;;;;;4806224;29;20035;-74
2023/01/16 06:54:38;;;;;;;2.92;1.50;;;4.20;99.90;;;;;;4853091;29;20037;-74
2023/01/16 06:57:03;;;;;;;3.10;1.35;;;4.20;99.90;;;;;;4854462;29;20029;-74
2023/01/16 06:59:29;;;;;;;3.05;1.20;;;4.20;99.90;;;;;;4830606;29;20052;-74
2023/01/16 07:01:55;;;;;;;1.27;1.27;;;4.30;99.90;;;;;;4837702;29;20038;-75
2023/01/16 07:04:21;;;;;;;3.10;1.30;;;4.30;99.90;;;;;;4818698;29;20042;-75
2023/01/16 07:06:49;;;;;;;1.55;1.05;;;4.30;99.90;;;;;;4810505;29;20030;-75
2023/01/16 07:09:15;;;;;;;3.03;2.05;;;4.30;99.90;;;;;;4853866;29;20042;-75
2023/01/16 07:11:41;;;;;;;2.90;1.52;;;4.30;99.90;;;;;;4834653;29;20559;-75
2023/01/16 07:22:38;;;;;;;4.15;1.27;;;4.20;99.90;;;;;;4841363;29;20042;-75
2023/01/16 07:25:13;;;;;;;2.25;1.58;;;4.20;99.90;;;;;;4823594;29;20035;-74
2023/01/16 07:27:41;;;;;;;1.48;1.38;;;4.20;99.90;;;;;;4823140;29;20041;-75
2023/01/16 07:30:08;;;;;;;5.22;1.45;;;4.20;99.90;;;;;;4823033;29;20046;-74
2023/01/16 07:32:34;;;;;;;6.57;2.53;;;4.20;99.90;;;;;;4814150;29;20034;-74
2023/01/16 07:35:00;;;;;;;3.80;2.35;;;4.30;99.90;;;;;;4822647;29;20057;-75
2023/01/16 07:37:26;;;;;;;1.50;1.35;;;4.30;99.90;;;;;;4808204;29;20496;-74
2023/01/16 07:39:51;;;;;;;2.42;2.22;;;4.30;99.90;;;;;;4822957;29;20094;-74
2023/01/16 07:42:17;;;;;;;1.98;1.35;;;4.30;99.90;;;;;;4810202;29;20023;-74
2023/01/16 07:44:43;;;;;;;2.70;1.52;;;4.40;99.90;;;;;;4836636;29;20418;-75
2023/01/16 07:47:10;;;;;;;10.23;3.53;;;4.40;99.90;;;;;;4822682;29;20439;-75
2023/01/16 07:49:36;;;;;;;3.40;1.48;;;4.40;99.90;;;;;;4807925;29;20054;-74
2023/01/16 07:52:03;;;;;;;2.78;1.75;;;4.40;99.90;;;;;;4839004;29;20085;-75
2023/01/16 07:54:28;;;;;;;1.63;1.15;;;4.40;99.90;;;;;;4822479;29;20030;-74
2023/01/16 07:56:54;;;;;;;3.70;2.65;;;4.40;99.90;;;;;;4838860;29;20032;-74
2023/01/16 07:59:20;;;;;;;5.03;1.50;;;4.40;99.90;;;;;;4807719;29;20026;-74
2023/01/16 08:01:46;;;;;;;2.78;2.05;;;4.40;99.90;;;;;;4822536;29;20030;-74
2023/01/16 08:04:13;;;;;;;6.28;2.08;;;4.50;99.90;;;;;;4837530;29;20037;-74
2023/01/16 08:06:44;;;;;;;5.53;2.88;;;4.60;99.90;;;;;;4822685;29;20088;-74
2023/01/16 08:09:10;;;;;;;2.22;1.70;;;4.60;99.90;;;;;;4838739;29;20035;-74
2023/01/16 08:11:38;;;;;;;3.90;1.70;;;4.60;99.90;;;;;;4812626;29;20054;-74
2023/01/16 08:14:05;;;;;;;5.05;1.48;;;4.70;99.90;;;;;;4826469;29;20033;-74
2023/01/16 08:16:32;;;;;;;2.58;1.70;;;4.80;99.90;;;;;;4825435;29;20034;-74
2023/01/16 08:18:58;;;;;;;0.82;0.80;;;4.80;99.90;;;;;;4821572;29;20037;-74
2023/01/16 08:21:24;;;;;;;0.40;0.40;;;4.90;99.90;;;;;;4806775;29;20040;-74
2023/01/16 08:23:50;;;;;;;0.50;0.50;;;4.90;99.90;;;;;;4837983;29;20071;-74
2023/01/16 08:26:16;;;;;;;0.52;0.52;;;5.00;99.90;;;;;;4838468;29;20023;-74
2023/01/16 08:28:42;;;;;;;0.40;0.40;;;4.90;99.90;;;;;;4822296;29;20452;-74
2023/01/16 08:31:12;;;;;;;0.70;0.47;;;4.90;99.90;;;;;;4822222;29;20045;-74
2023/01/16 08:33:39;;;;;;;0.43;0.43;;;4.80;99.90;;;;;;4821884;29;20030;-74
2023/01/16 08:36:08;;;;;;;0.80;0.80;;;4.80;99.90;;;;;;4822122;29;20057;-74
2023/01/16 08:38:34;;;;;;;0.60;0.60;;;4.60;99.90;;;;;;4822095;29;20054;-74
2023/01/16 08:41:00;;;;;;;0.57;0.55;;;4.60;99.90;;;;;;4821921;29;20034;-73
2023/01/16 08:51:57;;;;;;;;;;;4.70;99.90;;;;;;4838472;29;20074;-74
2023/01/16 08:54:23;;;;;;;0.52;0.52;;;4.70;99.90;;;;;;4806900;29;20399;-74
2023/01/16 08:56:48;;;;;;;0.40;0.40;;;4.70;99.90;;;;;;4819326;29;20029;-74
2023/01/16 08:59:14;;;;;;;0.45;0.45;;;4.70;99.90;;;;;;4820901;29;20054;-74
2023/01/16 09:01:41;;;;;;;0.40;0.40;;;4.70;99.90;;;;;;4817396;29;20034;-75
2023/01/16 09:04:08;;;;;;;0.10;0.10;;;4.80;99.90;;;;;;4820037;29;20035;-74
2023/01/16 09:06:35;;;;;;;0.40;0.40;;;4.90;99.90;;;;;;4822867;29;20109;-74
2023/01/16 09:09:06;;;;;;;0.52;0.52;;;5.00;99.90;;;;;;4831667;29;20569;-74
2023/01/16 09:14:21;;;;;;;0.47;0.47;;;5.00;99.90;;;;;;4821183;29;20140;-74
2023/01/16 09:16:47;;;;;;;0.32;0.32;;;5.00;99.90;;;;;;4821274;29;20033;-74
2023/01/16 09:19:12;;;;;;;0.22;0.22;;;5.10;99.90;;;;;;4837787;29;20129;-74
2023/01/16 09:21:38;;;;;;;0.60;0.60;;;5.20;99.90;;;;;;4821189;29;20044;-74
2023/01/16 09:24:04;;;;;;;2.88;1.95;;;5.20;99.90;;;;;;4837631;29;20094;-74
2023/01/16 09:26:30;;;;;;;0.30;0.30;;;5.20;99.90;;;;;;4817455;29;20089;-74
2023/01/16 09:28:56;;;;;;;0.50;0.50;;;5.30;99.90;;;;;;4824712;29;20064;-75
2023/01/16 09:31:22;;;;;;;14.05;1.05;;;5.30;99.90;;;;;;4821033;29;20064;-75
2023/01/16 09:33:49;;;;;;;0.20;0.20;;;5.40;99.90;;;;;;4805871;29;20046;-75
2023/01/16 09:36:15;;;;;;;0.30;0.30;;;5.40;99.90;;;;;;4791018;29;20066;-75
2023/01/16 09:38:41;;;;;;;0.20;0.20;;;5.40;99.90;;;;;;4855737;29;20369;-75
2023/01/16 09:44:08;;;;;;;0.47;0.47;;;5.50;99.90;;;;;;4839219;29;20042;-74
2023/01/16 09:46:45;;;;;;;0.20;0.20;;;5.40;99.90;;;;;;4855636;29;20120;-75
2023/01/16 09:49:20;;;;;;;0.47;0.40;;;5.50;99.90;;;;;;4857580;29;20029;-75
2023/01/16 10:00:19;;;;;;;0.35;0.30;;;5.60;99.90;;;;;;4842501;29;20026;-75
2023/01/16 10:02:45;;;;;;;0.30;0.30;;;5.70;99.90;;;;;;4825528;29;20049;-75
2023/01/16 10:05:13;;;;;;;0.30;0.30;;;5.70;99.90;;;;;;4820484;29;20053;-75
2023/01/16 10:07:49;;;;;;;1.60;0.45;;;5.80;99.90;;;;;;4837154;29;20034;-75
2023/01/16 10:10:23;;;;;;;0.30;0.30;;;5.90;99.90;;;;;;4836896;29;20424;-75
2023/01/16 10:13:02;;;;;;;0.40;0.30;;;6.00;99.90;;;;;;4834077;29;20034;-74
2023/01/16 10:15:43;;;;;;;0.47;0.47;;;6.20;99.90;;;;;;4838810;29;20097;-74
2023/01/16 10:18:18;;;;;;;1.00;0.20;;;6.40;99.90;;;;;;4838792;29;20034;-74
2023/01/16 10:20:44;;;;;;;0.73;0.63;;;6.40;99.90;;;;;;4838882;29;20034;-75
2023/01/16 10:23:09;;;;;;;0.30;0.30;;;6.30;99.90;;;;;;4832789;29;20058;-74
2023/01/16 10:26:11;;;;;;;1.35;0.30;;;6.20;99.90;;;;;;4820263;29;20077;-74
2023/01/16 10:28:48;;;;;;;0.25;0.25;;;6.30;99.90;;;;;;4765622;30;20055;-74
2023/01/16 10:31:28;;;;;;;0.20;0.20;;;6.20;99.90;;;;;;4833349;29;20042;-74
2023/01/16 10:34:13;;;;;;;0.38;0.22;;;6.10;99.90;;;;;;4854847;29;20170;-74
2023/01/16 10:36:46;;;;;;;0.30;0.30;;;6.10;99.90;;;;;;4831170;29;20049;-74
2023/01/16 10:39:15;;;;;;;1.48;0.93;;;6.10;99.90;;;;;;4857359;29;20037;-74
2023/01/16 10:50:16;;;;;;;0.63;0.30;;;6.10;99.90;;;;;;4862414;29;20043;-75
2023/01/16 10:52:43;;;;;;;0.50;0.50;;;6.20;99.90;;;;;;4879476;29;20096;-75
2023/01/16 10:55:10;;;;;;;0.10;0.10;;;6.20;99.90;;;;;;4842386;29;20393;-75
2023/01/16 10:57:52;;;;;;;0.22;0.22;;;6.30;99.90;;;;;;4826383;29;20034;-75
2023/01/16 11:00:33;;;;;;;2.25;0.32;;;6.40;99.90;;;;;;4844139;29;20032;-74
2023/01/16 11:03:08;;;;;;;4.45;0.32;;;6.50;99.90;;;;;;4844134;29;20041;-74
2023/01/16 11:05:36;;;;;;;0.52;0.52;;;6.60;99.90;;;;;;4824966;29;20117;-74
2023/01/16 11:08:13;;;;;;;0.50;0.50;;;6.70;99.90;;;;;;4851611;29;20051;-74
2023/01/16 11:10:44;;;;;;;0.20;0.20;;;6.80;99.90;;;;;;4843114;29;20034;-74
2023/01/16 11:19:27;;;;;;;0.68;0.68;;;6.70;99.90;;;;;;4839396;29;20056;-74
2023/01/16 11:21:59;;;;;;;0.40;0.40;;;6.70;99.90;;;;;;4842314;29;20038;-74
2023/01/16 11:24:38;;;;;;;0.30;0.30;;;6.70;99.90;;;;;;4842148;29;20042;-75
2023/01/16 11:27:16;;;;;;;0.57;0.50;;;6.70;99.90;;;;;;4842238;29;20038;-74
2023/01/16 11:29:43;;;;;;;0.45;0.45;;;6.70;99.90;;;;;;4825606;29;20030;-75
2023/01/16 11:32:13;;;;;;;1.70;1.00;;;6.70;99.90;;;;;;4843090;29;20034;-74
2023/01/16 11:34:44;;;;;;;0.90;0.50;;;6.70;99.90;;;;;;4841865;29;20038;-75
2023/01/16 11:37:12;;;;;;;0.32;0.32;;;6.70;99.90;;;;;;4825559;29;20121;-74
2023/01/16 11:39:39;;;;;;;0.60;0.60;;;6.70;99.90;;;;;;4842000;29;20059;-74
2023/01/16 11:47:50;;;;;;;2.75;2.55;;;6.70;99.90;;;;;;4860044;29;20036;-74
2023/01/16 11:50:28;;;;;;;0.50;0.47;;;6.70;99.90;;;;;;4860553;29;20114;-74
2023/01/16 11:52:54;;;;;;;0.90;0.90;;;6.80;99.90;;;;;;4838768;29;20026;-74
2023/01/16 11:55:24;;;;;;;0.75;0.50;;;6.80;99.90;;;;;;4848377;29;20033;-75
2023/01/16 11:58:19;;;;;;;0.65;0.65;;;6.90;99.90;;;;;;4841383;29;20058;-75
2023/01/16 12:01:11;;;;;;;0.40;0.40;;;7.00;99.90;;;;;;4822523;29;20113;-74
2023/01/16 12:03:37;;;;;;;0.98;0.50;;;7.00;99.90;;;;;;4832522;29;20038;-75
2023/01/16 12:06:33;;;;;;;0.50;0.50;;;7.00;99.90;;;;;;4825572;29;20481;-75
2023/01/16 12:08:59;;;;;;;1.67;0.30;;;7.10;99.90;;;;;;4857108;29;20030;-74
2023/01/16 12:11:46;;;;;;;0.65;0.65;;;7.00;99.90;;;;;;4831503;29;20046;-75
2023/01/16 12:14:21;;;;;;;0.25;0.25;;;7.10;99.90;;;;;;4838873;29;20087;-75
2023/01/16 12:17:05;;;;;;;0.68;0.57;;;7.10;99.90;;;;;;4850678;29;20029;-74
2023/01/16 12:20:13;;;;;;;0.77;0.77;;;7.30;99.90;;;;;;4855114;29;20029;-74
2023/01/16 12:22:45;;;;;;;6.22;5.63;;;7.20;99.90;;;;;;4821034;29;20031;-75
2023/01/16 12:25:29;;;;;;;0.30;0.30;;;7.30;99.90;;;;;;4853846;29;20034;-74
2023/01/16 12:28:13;;;;;;;2.25;0.30;;;7.30;99.90;;;;;;4840483;29;20042;-75
2023/01/16 12:31:38;;;;;;;0.95;0.20;;;7.20;99.90;;;;;;4856983;29;20058;-75
2023/01/16 12:34:13;;;;;;;0.60;0.52;;;7.20;99.90;;;;;;4840027;29;20042;-75
2023/01/16 12:36:45;;;;;;;0.35;0.35;;;7.10;99.90;;;;;;4856384;29;20069;-74
2023/01/16 12:39:28;;;;;;;1.05;0.98;;;7.20;99.90;;;;;;4840072;29;20508;-74
2023/01/16 12:45:16;;;;;;;0.68;0.55;;;7.40;99.90;;;;;;4838055;29;20035;-74
2023/01/16 12:47:59;;;;;;;0.60;0.60;;;7.30;99.90;;;;;;4845555;29;20033;-74
2023/01/16 12:50:31;;;;;;;0.75;0.30;;;7.40;99.90;;;;;;4824905;29;20042;-74
2023/01/16 12:53:07;;;;;;;3.33;2.53;;;7.30;99.90;;;;;;4839921;29;20044;-75
2023/01/16 12:55:53;;;;;;;0.40;0.40;;;7.30;99.90;;;;;;4821572;29;20055;-74
2023/01/16 12:58:31;;;;;;;1.20;1.20;;;7.20;99.90;;;;;;4806769;29;20038;-74
2023/01/16 13:01:06;;;;;;;0.40;0.40;;;7.30;99.90;;;;;;4806689;29;20031;-74
2023/01/16 13:03:44;;;;;;;0.13;0.13;;;7.20;99.90;;;;;;4837947;29;20038;-74
2023/01/16 13:06:20;;;;;;;1.00;0.90;;;7.20;99.90;;;;;;4837841;29;20034;-75
2023/01/16 13:09:05;;;;;;;0.90;0.90;;;7.30;99.90;;;;;;4837359;29;20038;-74
2023/01/16 13:14:24;;;;;;;0.20;0.20;;;7.30;99.90;;;;;;4839410;29;20042;-75
2023/01/16 13:17:00;;;;;;;0.40;0.40;;;7.20;99.90;;;;;;4856022;29;20113;-75
2023/01/16 13:19:29;;;;;;;0.40;0.40;;;7.20;99.90;;;;;;4824319;29;20030;-74
2023/01/16 13:22:19;;;;;;;3.10;0.60;;;7.10;99.90;;;;;;4839720;29;20034;-75
2023/01/16 13:25:14;;;;;;;0.45;0.43;;;7.10;99.90;;;;;;4856107;29;20087;-75
2023/01/16 13:27:49;;;;;;;0.88;0.88;;;7.00;99.90;;;;;;4855972;29;20392;-74
2023/01/16 13:30:18;;;;;;;0.40;0.40;;;7.00;99.90;;;;;;4839529;29;20030;-74
2023/01/16 13:33:28;;;;;;;0.52;0.40;;;6.90;99.90;;;;;;4824119;29;20029;-74
2023/01/16 13:36:31;;;;;;;0.40;0.40;;;6.90;99.90;;;;;;4817229;29;20418;-74
2023/01/16 13:39:35;;;;;;;0.20;0.20;;;6.90;99.90;;;;;;4801885;29;20284;-74
2023/01/16 13:42:03;;;;;;;0.40;0.40;;;6.80;99.90;;;;;;4839075;29;20030;-75
2023/01/16 13:47:32;;;;;;;5.45;3.92;;;6.90;99.90;;;;;;4833233;29;20038;-75
2023/01/16 13:50:18;;;;;;;0.70;0.50;;;6.90;99.90;;;;;;4808647;29;20045;-75
2023/01/16 13:52:45;;;;;;;6.13;0.38;;;6.90;99.90;;;;;;4855194;29;20034;-74
2023/01/16 13:55:28;;;;;;;0.80;0.80;;;6.90;99.90;;;;;;4838995;29;20030;-74
2023/01/16 13:58:16;;;;;;;1.45;0.60;;;6.80;99.90;;;;;;4855615;29;20387;-75
2023/01/16 14:00:43;;;;;;;0.35;0.35;;;6.80;99.90;;;;;;4855412;29;20025;-74
2023/01/16 14:03:22;;;;;;;0.40;0.40;;;6.80;99.90;;;;;;4838849;29;20030;-74
2023/01/16 14:06:10;;;;;;;1.10;1.10;;;6.70;99.90;;;;;;4838815;29;20038;-74
2023/01/16 14:09:06;;;;;;;1.10;0.70;;;6.70;99.90;;;;;;4854909;29;20041;-75
2023/01/16 14:11:40;;;;;;;1.30;1.30;;;6.70;99.90;;;;;;4816146;29;20049;-75
2023/01/16 14:17:05;;;;;;;0.75;0.75;;;6.80;99.90;;;;;;4820561;29;20038;-74
2023/01/16 14:19:53;;;;;;;1.60;1.25;;;6.90;99.90;;;;;;4819832;29;20034;-74
2023/01/16 14:34:31;;;;;;;0.70;0.70;;;7.00;99.90;;;;;;5123649;27;20410;-76
2023/01/16 14:37:10;;;;;;;3.95;3.58;;;6.80;99.90;;;;;;5122262;28;20024;-76
2023/01/16 14:39:55;;;;;;;4.07;3.47;;;6.70;99.90;;;;;;5122105;28;20102;-76
2023/01/16 14:56:38;;;;;;;3.88;1.92;;;6.70;99.90;;;;;;5123304;28;20032;-77
2023/01/16 14:59:18;;;;;;;1.95;1.65;;;6.60;99.90;;;;;;5104865;28;20111;-76